createdAt,value
2023-01-25T00:01:29.584Z,17.13
2023-01-25T00:04:32.027Z,17.00
2023-01-25T00:07:34.124Z,17.13
2023-01-25T00:10:36.201Z,17.06
2023-01-25T00:13:38.267Z,17.00
2023-01-25T00:16:40.788Z,17.00
2023-01-25T00:19:46.005Z,17.06
2023-01-25T00:22:48.054Z,17.00
2023-01-25T00:25:57.200Z,16.94
2023-01-25T00:29:00.370Z,16.94
2023-01-25T00:32:22.899Z,16.94
2023-01-25T00:35:32.422Z,16.88
2023-01-25T00:38:35.323Z,16.94
2023-01-25T00:41:37.351Z,16.94
2023-01-25T00:44:40.135Z,16.88
2023-01-25T00:47:42.320Z,16.94
2023-01-25T00:50:44.516Z,16.88
2023-01-25T00:53:46.646Z,16.88
2023-01-25T00:56:48.998Z,16.81
2023-01-25T00:59:51.055Z,16.81
2023-01-25T01:02:53.054Z,16.81
2023-01-25T01:06:24.504Z,16.81
2023-01-25T01:09:26.706Z,16.75
2023-01-25T01:12:28.830Z,16.81
2023-01-25T01:15:30.945Z,16.75
2023-01-25T01:18:38.003Z,16.75
2023-01-25T01:21:40.106Z,16.75
2023-01-25T01:24:42.317Z,16.75
2023-01-25T01:27:44.398Z,16.75
2023-01-25T01:30:46.546Z,16.75
2023-01-25T01:33:53.588Z,16.69
2023-01-25T01:36:55.662Z,16.69
2023-01-25T01:39:57.715Z,16.63
2023-01-25T01:43:21.204Z,16.69
2023-01-25T01:46:33.314Z,16.63
2023-01-25T01:49:35.682Z,16.63
2023-01-25T01:52:38.421Z,16.63
2023-01-25T01:55:40.664Z,16.63
2023-01-25T01:58:44.181Z,16.56
2023-01-25T02:01:46.921Z,16.56
2023-01-25T02:04:50.150Z,16.56
2023-01-25T02:07:54.788Z,16.56
2023-01-25T02:10:57.328Z,16.56
2023-01-25T02:14:00.415Z,16.56
2023-01-25T02:17:04.060Z,16.56
2023-01-25T02:20:44.347Z,16.50
2023-01-25T02:23:58.876Z,16.50
2023-01-25T02:27:01.086Z,16.50
2023-01-25T02:30:04.580Z,16.50
2023-01-25T02:33:06.667Z,16.44
2023-01-25T02:36:08.686Z,16.44
2023-01-25T02:39:17.005Z,16.44
2023-01-25T02:42:20.533Z,16.44
2023-01-25T02:45:27.514Z,16.44
2023-01-25T02:48:29.564Z,16.38
2023-01-25T02:51:33.871Z,16.44
2023-01-25T02:54:35.972Z,16.38
2023-01-25T02:57:38.034Z,16.38
2023-01-25T03:00:40.466Z,16.38
2023-01-25T03:03:42.811Z,16.38
2023-01-25T03:06:44.908Z,16.38
2023-01-25T03:09:46.965Z,16.31
2023-01-25T03:12:49.024Z,16.31
2023-01-25T03:15:51.200Z,16.31
2023-01-25T03:18:54.815Z,16.31
2023-01-25T03:21:57.957Z,16.31
2023-01-25T03:25:00.150Z,16.25
2023-01-25T03:28:02.208Z,16.25
2023-01-25T03:31:04.908Z,16.25
2023-01-25T03:34:06.994Z,16.25
2023-01-25T03:37:09.026Z,16.25
2023-01-25T03:40:11.655Z,16.25
2023-01-25T03:43:13.754Z,16.19
2023-01-25T03:46:15.828Z,16.19
2023-01-25T03:49:18.683Z,16.19
2023-01-25T03:52:20.887Z,16.19
2023-01-25T03:55:22.941Z,16.13
2023-01-25T03:58:25.387Z,16.19
2023-01-25T04:01:27.462Z,16.13
2023-01-25T04:04:29.570Z,16.13
2023-01-25T04:07:31.643Z,16.13
2023-01-25T04:10:33.735Z,16.13
2023-01-25T04:13:37.026Z,16.13
2023-01-25T04:16:39.163Z,16.06
2023-01-25T04:19:41.271Z,16.06
2023-01-25T04:22:43.329Z,16.13
2023-01-25T04:25:56.478Z,16.44
2023-01-25T04:28:58.536Z,16.63
2023-01-25T04:32:00.872Z,16.69
2023-01-25T04:35:03.267Z,16.75
2023-01-25T04:38:05.471Z,16.81
2023-01-25T04:41:07.514Z,16.94
2023-01-25T04:44:09.589Z,17.00
2023-01-25T04:47:11.704Z,17.13
2023-01-25T04:50:13.889Z,17.25
2023-01-25T04:53:15.949Z,17.44
2023-01-25T04:56:18.029Z,17.50
2023-01-25T04:59:20.107Z,17.50
2023-01-25T05:02:22.527Z,17.56
2023-01-25T05:05:24.752Z,17.75
2023-01-25T05:08:26.914Z,17.75
2023-01-25T05:11:28.968Z,17.75
2023-01-25T05:14:31.023Z,17.75
2023-01-25T05:17:33.514Z,17.88
2023-01-25T05:20:35.556Z,18.00
2023-01-25T05:23:37.618Z,17.94
2023-01-25T05:26:58.144Z,18.00
2023-01-25T05:30:00.298Z,18.00
2023-01-25T05:33:02.670Z,18.13
2023-01-25T05:36:04.815Z,18.19
2023-01-25T05:39:08.616Z,18.25
2023-01-25T05:42:19.718Z,18.19
2023-01-25T05:45:21.744Z,18.19
2023-01-25T05:48:23.850Z,18.25
2023-01-25T05:51:25.911Z,18.31
2023-01-25T05:54:28.005Z,18.38
2023-01-25T05:57:30.089Z,18.38
2023-01-25T06:00:32.285Z,18.31
2023-01-25T06:03:34.744Z,18.31
2023-01-25T06:06:36.855Z,18.44
2023-01-25T06:09:38.961Z,18.44
2023-01-25T06:12:41.113Z,18.56
2023-01-25T06:15:43.665Z,18.44
2023-01-25T06:18:46.014Z,18.44
2023-01-25T06:21:48.105Z,18.44
2023-01-25T06:24:50.216Z,18.56
2023-01-25T06:27:54.586Z,18.63
2023-01-25T06:30:56.796Z,18.56
2023-01-25T06:34:01.150Z,18.50
2023-01-25T06:37:03.301Z,18.50
2023-01-25T06:40:05.837Z,18.63
2023-01-25T06:43:11.766Z,18.69
2023-01-25T06:46:14.168Z,18.63
2023-01-25T06:49:16.417Z,18.63
2023-01-25T06:52:18.525Z,18.63
2023-01-25T06:55:21.131Z,18.69
2023-01-25T06:58:23.198Z,18.81
2023-01-25T07:01:30.270Z,18.75
2023-01-25T07:04:32.550Z,18.69
2023-01-25T07:07:34.936Z,18.69
2023-01-25T07:10:37.005Z,18.81
2023-01-25T07:13:41.325Z,18.88
2023-01-25T07:16:43.342Z,18.81
2023-01-25T07:19:45.408Z,18.75
2023-01-25T07:22:47.482Z,18.75
2023-01-25T07:25:50.624Z,18.75
2023-01-25T07:28:53.703Z,18.81
2023-01-25T07:31:55.941Z,18.75
2023-01-25T07:35:00.804Z,18.75
2023-01-25T07:38:03.202Z,18.81
2023-01-25T07:41:05.718Z,18.88
2023-01-25T07:44:07.783Z,18.88
2023-01-25T07:47:09.839Z,18.94
2023-01-25T07:50:12.916Z,18.88
2023-01-25T07:53:18.000Z,19.00
2023-01-25T07:56:23.390Z,19.13
2023-01-25T07:59:26.111Z,19.13
2023-01-25T08:02:28.228Z,19.13
2023-01-25T08:05:30.296Z,19.06
2023-01-25T08:08:34.588Z,19.13
2023-01-25T08:11:36.685Z,19.31
2023-01-25T08:14:39.154Z,19.38
2023-01-25T08:17:41.315Z,19.31
2023-01-25T08:20:43.378Z,19.38
2023-01-25T08:23:46.074Z,19.38
2023-01-25T08:26:48.205Z,19.44
2023-01-25T08:29:50.611Z,19.63
2023-01-25T08:32:52.665Z,19.63
2023-01-25T08:35:56.735Z,19.56
2023-01-25T08:39:01.609Z,19.63
2023-01-25T08:42:03.738Z,19.69
2023-01-25T08:45:06.302Z,19.81
2023-01-25T08:48:10.717Z,19.69
2023-01-25T08:51:17.712Z,19.56
2023-01-25T08:54:19.803Z,19.63
2023-01-25T08:57:22.184Z,19.69
2023-01-25T09:00:24.345Z,19.75
2023-01-25T09:03:26.425Z,19.69
2023-01-25T09:06:28.538Z,19.63
2023-01-25T09:09:30.609Z,19.63
2023-01-25T09:12:32.671Z,19.75
2023-01-25T09:15:34.888Z,19.81
2023-01-25T09:18:38.203Z,19.75
2023-01-25T09:21:40.927Z,19.69
2023-01-25T09:24:43.394Z,19.69
2023-01-25T09:28:08.582Z,19.81
2023-01-25T09:31:34.046Z,19.88
2023-01-25T09:34:57.755Z,19.94
2023-01-25T09:38:06.304Z,19.81
2023-01-25T09:41:29.743Z,19.81
2023-01-25T09:45:05.502Z,19.94
2023-01-25T09:48:39.372Z,19.94
2023-01-25T09:52:12.545Z,19.94
2023-01-25T09:55:21.254Z,19.88
2023-01-25T09:58:43.247Z,20.06
2023-01-25T10:02:16.742Z,20.06
2023-01-25T10:09:41.542Z,20.00
2023-01-25T10:13:02.302Z,20.13
2023-01-25T10:20:47.655Z,20.13
2023-01-25T10:24:30.355Z,20.13
2023-01-25T10:27:59.476Z,20.19
2023-01-25T10:31:30.785Z,20.31
2023-01-25T10:39:13.718Z,20.19
2023-01-25T10:42:19.909Z,20.25
2023-01-25T10:45:22.292Z,20.38
2023-01-25T10:48:48.167Z,20.38
2023-01-25T10:53:45.502Z,20.19
2023-01-25T10:56:32.763Z,20.19
2023-01-25T10:59:37.384Z,20.19
2023-01-25T11:02:47.903Z,20.25
2023-01-25T11:05:57.966Z,20.56
2023-01-25T11:09:19.093Z,20.56
2023-01-25T11:12:22.154Z,20.44
2023-01-25T11:15:25.771Z,20.38
2023-01-25T11:18:31.728Z,20.56
2023-01-25T11:21:35.529Z,20.44
2023-01-25T11:24:37.823Z,20.38
2023-01-25T11:27:39.890Z,20.38
2023-01-25T11:30:42.279Z,20.31
2023-01-25T11:33:44.388Z,20.38
2023-01-25T11:37:00.122Z,20.38
2023-01-25T11:40:22.475Z,20.31
2023-01-25T11:43:42.064Z,20.25
2023-01-25T11:47:16.946Z,20.31
2023-01-25T11:50:22.411Z,20.31
2023-01-25T11:53:44.546Z,20.38
2023-01-25T11:56:54.254Z,20.31
2023-01-25T12:00:36.251Z,20.19
2023-01-25T12:04:12.346Z,20.25
2023-01-25T12:07:16.895Z,20.31
2023-01-25T12:10:25.505Z,20.38
2023-01-25T12:13:51.241Z,20.25
2023-01-25T12:17:07.096Z,20.19
2023-01-25T12:20:44.299Z,20.19
2023-01-25T12:24:37.538Z,20.13
2023-01-25T12:28:11.347Z,20.13
2023-01-25T12:31:40.018Z,20.00
2023-01-25T12:34:48.983Z,19.94
2023-01-25T12:37:57.438Z,20.00
2023-01-25T12:41:08.321Z,20.13
2023-01-25T12:44:25.645Z,20.38
2023-01-25T12:47:45.860Z,20.38
2023-01-25T12:50:52.537Z,20.38
2023-01-25T12:53:56.875Z,20.38
2023-01-25T12:57:23.294Z,20.31
2023-01-25T13:01:02.478Z,20.38
2023-01-25T13:04:16.583Z,20.38
2023-01-25T13:07:30.685Z,20.31
2023-01-25T13:10:40.595Z,20.31
2023-01-25T13:13:42.821Z,20.25
2023-01-25T13:17:01.416Z,20.31
2023-01-25T13:20:41.205Z,20.38
2023-01-25T13:23:47.023Z,20.31
2023-01-25T13:26:54.093Z,20.38
2023-01-25T13:30:22.792Z,20.31
2023-01-25T13:33:35.692Z,20.31
2023-01-25T13:36:42.115Z,20.31
2023-01-25T13:39:48.115Z,20.31
2023-01-25T13:43:03.782Z,20.31
2023-01-25T13:46:07.755Z,20.25
2023-01-25T13:49:21.205Z,20.19
2023-01-25T13:52:25.210Z,20.19
2023-01-25T13:55:28.316Z,20.06
2023-01-25T13:58:47.845Z,20.06
2023-01-25T14:01:50.683Z,20.00
2023-01-25T14:04:53.188Z,19.94
2023-01-25T14:07:56.884Z,19.94
2023-01-25T14:10:59.265Z,19.88
2023-01-25T14:14:03.047Z,19.88
2023-01-25T14:17:25.421Z,19.75
2023-01-25T14:20:27.588Z,19.75
2023-01-25T14:23:30.817Z,19.69
2023-01-25T14:26:34.946Z,19.63
2023-01-25T14:32:44.755Z,19.56
2023-01-25T14:36:00.174Z,19.56
2023-01-25T14:39:20.436Z,19.50
2023-01-25T14:42:22.751Z,19.44
2023-01-25T14:45:26.897Z,19.44
2023-01-25T14:48:40.792Z,19.31
2023-01-25T14:51:47.829Z,19.31
2023-01-25T14:54:57.433Z,19.31
2023-01-25T14:58:01.360Z,19.31
2023-01-25T15:01:03.817Z,19.19
2023-01-25T15:04:11.771Z,19.19
2023-01-25T15:07:51.043Z,19.13
2023-01-25T15:10:55.397Z,19.06
2023-01-25T15:14:14.434Z,19.00
2023-01-25T15:17:38.176Z,18.88
2023-01-25T15:20:41.721Z,18.88
2023-01-25T15:23:46.044Z,18.81
2023-01-25T15:26:53.373Z,18.75
2023-01-25T15:29:57.596Z,18.75
2023-01-25T15:33:01.701Z,18.75
2023-01-25T15:36:03.911Z,18.81
2023-01-25T15:39:10.818Z,18.81
2023-01-25T15:42:12.903Z,18.75
2023-01-25T15:45:15.069Z,18.81
2023-01-25T15:48:19.534Z,18.81
2023-01-25T15:51:22.137Z,18.75
2023-01-25T15:54:24.585Z,18.75
2023-01-25T15:57:33.923Z,18.75
2023-01-25T16:00:36.583Z,18.75
2023-01-25T16:03:41.427Z,18.75
2023-01-25T16:06:44.884Z,18.81
2023-01-25T16:09:48.116Z,18.69
2023-01-25T16:12:50.764Z,18.81
2023-01-25T16:15:54.782Z,18.81
2023-01-25T16:18:56.913Z,18.75
2023-01-25T16:21:59.126Z,18.75
2023-01-25T16:25:01.205Z,18.69
2023-01-25T16:28:03.275Z,18.69
2023-01-25T16:31:05.496Z,18.69
2023-01-25T16:34:07.977Z,18.69
2023-01-25T16:37:18.398Z,18.75
2023-01-25T16:40:24.633Z,18.94
2023-01-25T16:43:31.675Z,19.06
2023-01-25T16:46:40.462Z,19.19
2023-01-25T16:49:42.591Z,19.13
2023-01-25T16:52:45.957Z,19.19
2023-01-25T16:55:49.457Z,19.19
2023-01-25T16:58:53.000Z,19.25
2023-01-25T17:01:55.113Z,19.25
2023-01-25T17:04:57.255Z,19.25
2023-01-25T17:07:59.512Z,19.19
2023-01-25T17:11:05.989Z,19.19
2023-01-25T17:14:08.779Z,19.06
2023-01-25T17:17:10.866Z,19.13
2023-01-25T17:20:13.093Z,19.06
2023-01-25T17:23:15.138Z,19.00
2023-01-25T17:26:19.247Z,19.00
2023-01-25T17:29:21.938Z,19.00
2023-01-25T17:32:24.502Z,18.94
2023-01-25T17:35:26.609Z,18.94
2023-01-25T17:38:29.338Z,18.88
2023-01-25T17:41:31.933Z,18.88
2023-01-25T17:44:34.026Z,18.88
2023-01-25T17:47:36.093Z,18.81
2023-01-25T17:50:38.454Z,18.81
2023-01-25T17:53:40.955Z,18.69
2023-01-25T17:56:43.217Z,18.63
2023-01-25T17:59:46.759Z,18.63
2023-01-25T18:02:49.426Z,18.56
2023-01-25T18:05:57.793Z,18.56
2023-01-25T18:09:06.783Z,18.56
2023-01-25T18:12:09.048Z,18.56
2023-01-25T18:15:12.445Z,18.56
2023-01-25T18:18:14.818Z,18.50
2023-01-25T18:21:24.278Z,18.44
2023-01-25T18:24:31.562Z,18.44
2023-01-25T18:27:34.180Z,18.44
2023-01-25T18:30:41.174Z,18.38
2023-01-25T18:33:44.005Z,18.38
2023-01-25T18:36:46.433Z,18.38
2023-01-25T18:39:51.465Z,18.31
2023-01-25T18:42:53.786Z,18.31
2023-01-25T18:45:57.628Z,18.31
2023-01-25T18:48:59.853Z,18.31
2023-01-25T18:52:11.350Z,18.25
2023-01-25T18:55:14.131Z,18.25
2023-01-25T18:58:16.600Z,18.19
2023-01-25T19:01:21.194Z,18.19
2023-01-25T19:04:23.432Z,18.19
2023-01-25T19:07:25.645Z,18.19
2023-01-25T19:10:27.796Z,18.13
2023-01-25T19:13:32.616Z,18.13
2023-01-25T19:16:34.792Z,18.06
2023-01-25T19:19:36.844Z,18.06
2023-01-25T19:22:40.587Z,18.13
2023-01-25T19:25:42.882Z,18.06
2023-01-25T19:28:45.637Z,18.13
2023-01-25T19:31:47.751Z,18.06
2023-01-25T19:34:50.837Z,18.06
2023-01-25T19:37:52.890Z,18.00
2023-01-25T19:40:54.995Z,18.06
2023-01-25T19:44:02.831Z,17.94
2023-01-25T19:47:04.996Z,17.94
2023-01-25T19:50:07.917Z,17.94
2023-01-25T19:53:09.983Z,17.88
2023-01-25T19:56:16.003Z,17.88
2023-01-25T19:59:20.787Z,17.81
2023-01-25T20:02:22.843Z,17.81
2023-01-25T20:05:24.930Z,17.81
2023-01-25T20:08:47.277Z,17.75
2023-01-25T20:11:49.403Z,17.81
2023-01-25T20:14:51.644Z,17.75
2023-01-25T20:17:53.869Z,17.75
2023-01-25T20:21:04.654Z,17.75
2023-01-25T20:24:07.760Z,17.75
2023-01-25T20:27:10.324Z,17.69
2023-01-25T20:30:12.712Z,17.69
2023-01-25T20:33:16.448Z,17.69
2023-01-25T20:36:18.964Z,17.69
2023-01-25T20:39:22.882Z,17.63
2023-01-25T20:42:25.022Z,17.63
2023-01-25T20:45:27.251Z,17.63
2023-01-25T20:48:33.125Z,17.63
2023-01-25T20:51:35.312Z,17.63
2023-01-25T20:54:38.260Z,17.56
2023-01-25T20:57:40.860Z,17.56
2023-01-25T21:00:43.086Z,17.56
2023-01-25T21:03:45.400Z,17.56
2023-01-25T21:06:47.611Z,17.56
2023-01-25T21:09:49.723Z,17.56
2023-01-25T21:12:51.767Z,17.50
2023-01-25T21:16:10.614Z,17.56
2023-01-25T21:19:12.705Z,17.50
2023-01-25T21:22:14.880Z,17.50
2023-01-25T21:25:17.020Z,17.50
2023-01-25T21:28:19.113Z,17.50
2023-01-25T21:31:24.345Z,17.50
2023-01-25T21:34:26.512Z,17.44
2023-01-25T21:37:29.611Z,17.44
2023-01-25T21:40:35.323Z,17.44
2023-01-25T21:43:56.550Z,17.44
2023-01-25T21:47:27.756Z,17.44
2023-01-25T21:50:42.690Z,17.38
2023-01-25T21:53:48.242Z,17.38
2023-01-25T21:56:52.148Z,17.38
2023-01-25T21:59:54.587Z,17.38
2023-01-25T22:02:57.048Z,17.38
2023-01-25T22:05:59.117Z,17.38
2023-01-25T22:09:01.912Z,17.31
2023-01-25T22:12:04.360Z,17.31
2023-01-25T22:15:07.015Z,17.31
2023-01-25T22:18:09.227Z,17.25
2023-01-25T22:21:20.239Z,17.25
2023-01-25T22:24:22.623Z,17.25
2023-01-25T22:27:31.994Z,17.19
2023-01-25T22:30:34.077Z,17.19
2023-01-25T22:33:36.151Z,17.19
2023-01-25T22:36:40.716Z,17.13
2023-01-25T22:39:42.780Z,17.13
2023-01-25T22:42:44.891Z,17.06
2023-01-25T22:45:51.725Z,17.06
2023-01-25T22:48:53.839Z,17.13
2023-01-25T22:51:59.028Z,17.06
2023-01-25T22:55:01.097Z,17.06
2023-01-25T22:58:03.262Z,17.06
2023-01-25T23:01:12.195Z,17.00
2023-01-25T23:04:14.469Z,17.00
2023-01-25T23:07:18.797Z,17.06
2023-01-25T23:10:21.035Z,17.00
2023-01-25T23:13:23.137Z,17.00
2023-01-25T23:16:25.208Z,17.00
2023-01-25T23:19:27.399Z,17.00
2023-01-25T23:22:29.568Z,16.94
2023-01-25T23:25:32.472Z,16.94
2023-01-25T23:28:34.659Z,16.94
2023-01-25T23:31:37.434Z,16.94
2023-01-25T23:34:41.426Z,16.94
2023-01-25T23:37:43.762Z,16.88
2023-01-25T23:40:45.811Z,16.94
2023-01-25T23:43:49.033Z,16.88
2023-01-25T23:46:51.550Z,16.81
2023-01-25T23:49:53.792Z,16.81
2023-01-25T23:52:55.818Z,16.81
2023-01-25T23:56:06.594Z,16.88
2023-01-25T23:59:08.666Z,16.81
